createdAt,value
2018-03-29T00:00:09.506Z,0.00
2018-03-29T00:01:09.512Z,0.00
2018-03-29T00:02:09.537Z,0.00
2018-03-29T00:03:09.513Z,0.00
2018-03-29T00:04:09.602Z,0.00
2018-03-29T00:05:09.529Z,0.00
2018-03-29T00:06:09.537Z,0.00
2018-03-29T00:07:09.540Z,0.00
2018-03-29T00:08:09.559Z,0.00
2018-03-29T00:09:09.547Z,0.00
2018-03-29T00:10:09.599Z,0.00
2018-03-29T00:11:09.593Z,0.00
2018-03-29T00:12:09.572Z,0.00
2018-03-29T00:13:09.581Z,0.00
2018-03-29T00:14:09.586Z,0.00
2018-03-29T00:15:09.639Z,0.00
2018-03-29T00:16:09.591Z,0.00
2018-03-29T00:17:09.596Z,0.00
2018-03-29T00:18:09.624Z,0.00
2018-03-29T00:19:09.632Z,0.00
2018-03-29T00:20:09.637Z,0.00
2018-03-29T00:21:09.679Z,0.00
2018-03-29T00:22:09.685Z,0.00
2018-03-29T00:23:09.681Z,0.00
2018-03-29T00:24:09.696Z,0.00
2018-03-29T00:25:09.638Z,0.00
2018-03-29T00:26:09.646Z,0.00
2018-03-29T00:27:09.654Z,0.00
2018-03-29T00:28:09.696Z,0.00
2018-03-29T00:29:09.680Z,0.00
2018-03-29T00:30:09.673Z,0.00
2018-03-29T00:31:09.680Z,0.00
2018-03-29T00:32:09.725Z,0.00
2018-03-29T00:33:09.738Z,0.00
2018-03-29T00:34:09.694Z,0.00
2018-03-29T00:35:09.744Z,0.00
2018-03-29T00:36:09.735Z,0.00
2018-03-29T00:37:09.715Z,0.00
2018-03-29T00:38:09.762Z,0.00
2018-03-29T00:39:09.793Z,0.00
2018-03-29T00:40:09.750Z,0.00
2018-03-29T00:41:09.734Z,0.00
2018-03-29T00:42:09.746Z,0.00
2018-03-29T00:43:09.756Z,0.00
2018-03-29T00:44:09.798Z,0.00
2018-03-29T00:45:09.759Z,0.00
2018-03-29T00:46:09.766Z,0.00
2018-03-29T00:47:09.773Z,0.00
2018-03-29T00:48:09.781Z,0.00
2018-03-29T00:49:09.781Z,0.00
2018-03-29T00:50:09.822Z,0.00
2018-03-29T00:51:09.809Z,0.00
2018-03-29T00:52:09.800Z,0.00
2018-03-29T00:53:09.802Z,0.00
2018-03-29T00:54:09.830Z,0.00
2018-03-29T00:55:09.815Z,0.00
2018-03-29T00:56:09.866Z,0.00
2018-03-29T00:57:09.824Z,0.00
2018-03-29T00:58:09.884Z,0.00
2018-03-29T00:59:09.877Z,0.00
2018-03-29T01:00:09.863Z,0.00
2018-03-29T01:01:09.859Z,0.00
2018-03-29T01:02:09.852Z,0.00
2018-03-29T01:03:09.939Z,0.00
2018-03-29T01:04:09.876Z,0.00
2018-03-29T01:05:09.922Z,0.00
2018-03-29T01:06:09.882Z,0.00
2018-03-29T01:07:09.893Z,0.00
2018-03-29T01:08:09.912Z,0.00
2018-03-29T01:09:09.929Z,0.00
2018-03-29T01:10:09.915Z,0.00
2018-03-29T01:11:09.962Z,0.00
2018-03-29T01:12:09.977Z,0.00
2018-03-29T01:13:09.936Z,0.00
2018-03-29T01:14:09.937Z,0.00
2018-03-29T01:15:09.963Z,0.00
2018-03-29T01:16:09.947Z,0.00
2018-03-29T01:17:09.985Z,0.00
2018-03-29T01:18:09.952Z,0.00
2018-03-29T01:19:09.989Z,0.00
2018-03-29T01:20:09.965Z,0.00
2018-03-29T01:21:10.031Z,0.00
2018-03-29T01:22:09.969Z,0.00
2018-03-29T01:23:10.015Z,0.00
2018-03-29T01:24:09.989Z,0.00
2018-03-29T01:25:09.990Z,0.00
2018-03-29T01:26:10.023Z,0.00
2018-03-29T01:27:10.078Z,0.00
2018-03-29T01:28:10.008Z,0.00
2018-03-29T01:29:10.012Z,0.00
2018-03-29T01:30:10.019Z,0.00
2018-03-29T01:31:10.057Z,0.00
2018-03-29T01:32:10.083Z,0.00
2018-03-29T01:33:10.039Z,0.00
2018-03-29T01:34:10.050Z,0.00
2018-03-29T01:35:10.089Z,0.00
2018-03-29T01:36:10.061Z,0.00
2018-03-29T01:37:10.206Z,0.00
2018-03-29T01:38:10.078Z,0.00
2018-03-29T01:39:10.133Z,0.00
2018-03-29T01:40:10.085Z,0.00
2018-03-29T01:41:10.098Z,0.00
2018-03-29T01:42:10.100Z,0.00
2018-03-29T01:43:10.096Z,0.00
2018-03-29T01:44:10.127Z,0.00
2018-03-29T01:45:10.172Z,0.00
2018-03-29T01:46:10.128Z,0.00
2018-03-29T01:47:10.126Z,0.00
2018-03-29T01:48:10.130Z,0.00
2018-03-29T01:49:10.139Z,0.00
2018-03-29T01:50:10.138Z,0.00
2018-03-29T01:51:10.212Z,0.00
2018-03-29T01:52:10.172Z,0.00
2018-03-29T01:53:10.163Z,0.00
2018-03-29T01:54:10.170Z,0.00
2018-03-29T01:55:10.186Z,0.00
2018-03-29T01:56:10.235Z,0.00
2018-03-29T01:57:10.183Z,0.00
2018-03-29T01:58:10.205Z,0.00
2018-03-29T01:59:10.198Z,0.00
2018-03-29T02:00:10.206Z,0.00
2018-03-29T02:01:10.218Z,0.00
2018-03-29T02:02:10.291Z,0.00
2018-03-29T02:03:10.234Z,0.00
2018-03-29T02:04:10.233Z,0.00
2018-03-29T02:05:10.246Z,0.00
2018-03-29T02:06:10.249Z,0.00
2018-03-29T02:07:10.257Z,0.00
2018-03-29T02:08:10.321Z,0.00
2018-03-29T02:09:10.289Z,0.00
2018-03-29T02:10:10.267Z,0.00
2018-03-29T02:11:10.292Z,0.00
2018-03-29T02:12:10.283Z,0.00
2018-03-29T02:13:10.305Z,0.00
2018-03-29T02:14:10.317Z,0.00
2018-03-29T02:15:10.311Z,0.00
2018-03-29T02:16:10.312Z,0.00
2018-03-29T02:17:10.321Z,0.00
2018-03-29T02:18:10.315Z,0.00
2018-03-29T02:19:10.356Z,0.00
2018-03-29T02:20:10.355Z,0.00
2018-03-29T02:21:10.335Z,0.00
2018-03-29T02:22:10.348Z,0.00
2018-03-29T02:23:10.363Z,0.00
2018-03-29T02:24:10.364Z,0.00
2018-03-29T02:25:10.389Z,0.00
2018-03-29T02:26:10.359Z,0.00
2018-03-29T02:27:10.487Z,0.00
2018-03-29T02:28:10.369Z,0.00
2018-03-29T02:29:10.376Z,0.00
2018-03-29T02:30:10.445Z,0.00
2018-03-29T02:31:10.391Z,0.00
2018-03-29T02:32:10.401Z,0.00
2018-03-29T02:33:10.423Z,0.00
2018-03-29T02:34:10.441Z,0.00
2018-03-29T02:35:10.479Z,0.00
2018-03-29T02:36:10.419Z,0.00
2018-03-29T02:37:10.484Z,0.00
2018-03-29T02:38:10.431Z,0.00
2018-03-29T02:39:10.486Z,0.00
2018-03-29T02:40:10.442Z,0.00
2018-03-29T02:41:10.509Z,0.00
2018-03-29T02:42:10.529Z,0.00
2018-03-29T02:43:10.467Z,0.00
2018-03-29T02:44:10.515Z,0.00
2018-03-29T02:45:10.474Z,0.00
2018-03-29T02:46:10.479Z,0.00
2018-03-29T02:47:10.503Z,0.00
2018-03-29T02:48:10.543Z,0.00
2018-03-29T02:49:10.500Z,0.00
2018-03-29T02:50:10.509Z,0.00
2018-03-29T02:51:10.515Z,0.00
2018-03-29T02:52:10.519Z,0.00
2018-03-29T02:53:10.560Z,0.00
2018-03-29T02:54:10.539Z,0.00
2018-03-29T02:55:10.599Z,0.00
2018-03-29T02:56:10.545Z,0.00
2018-03-29T02:57:10.558Z,0.00
2018-03-29T02:58:10.606Z,0.00
2018-03-29T02:59:10.616Z,0.00
2018-03-29T03:00:10.568Z,0.00
2018-03-29T03:01:10.634Z,0.00
2018-03-29T03:02:10.581Z,0.00
2018-03-29T03:03:10.595Z,0.00
2018-03-29T03:04:10.652Z,0.00
2018-03-29T03:05:10.602Z,0.00
2018-03-29T03:06:10.626Z,0.00
2018-03-29T03:07:10.618Z,0.00
2018-03-29T03:08:10.632Z,0.00
2018-03-29T03:09:10.685Z,0.00
2018-03-29T03:10:10.631Z,0.00
2018-03-29T03:11:10.681Z,0.00
2018-03-29T03:12:10.648Z,0.00
2018-03-29T03:13:10.669Z,0.00
2018-03-29T03:14:10.716Z,0.00
2018-03-29T03:15:10.668Z,0.00
2018-03-29T03:16:10.672Z,0.00
2018-03-29T03:17:10.906Z,0.00
2018-03-29T03:18:10.722Z,0.00
2018-03-29T03:19:10.734Z,0.00
2018-03-29T03:20:10.700Z,0.00
2018-03-29T03:21:10.774Z,0.00
2018-03-29T03:22:10.714Z,0.00
2018-03-29T03:23:10.769Z,0.00
2018-03-29T03:24:10.726Z,0.00
2018-03-29T03:25:10.734Z,0.00
2018-03-29T03:26:10.800Z,0.00
2018-03-29T03:27:10.744Z,0.00
2018-03-29T03:28:10.754Z,0.00
2018-03-29T03:29:10.760Z,0.00
2018-03-29T03:30:10.777Z,0.00
2018-03-29T03:31:10.787Z,0.00
2018-03-29T03:32:10.848Z,0.00
2018-03-29T03:33:10.787Z,0.00
2018-03-29T03:34:10.795Z,0.00
2018-03-29T03:35:10.803Z,0.00
2018-03-29T03:36:10.816Z,0.00
2018-03-29T03:37:10.840Z,0.00
2018-03-29T03:38:10.878Z,0.00
2018-03-29T03:39:10.825Z,0.00
2018-03-29T03:40:10.837Z,0.00
2018-03-29T03:41:10.890Z,0.00
2018-03-29T03:42:10.845Z,0.00
2018-03-29T03:43:10.852Z,0.00
2018-03-29T03:44:10.898Z,0.00
2018-03-29T03:45:11.084Z,0.00
2018-03-29T03:46:10.879Z,0.00
2018-03-29T03:47:10.909Z,0.00
2018-03-29T03:48:10.886Z,0.00
2018-03-29T03:49:10.897Z,0.00
2018-03-29T03:50:10.898Z,0.00
2018-03-29T03:51:10.904Z,0.00
2018-03-29T03:52:10.918Z,0.00
2018-03-29T03:53:10.949Z,0.00
2018-03-29T03:54:11.026Z,0.00
2018-03-29T03:55:10.926Z,0.00
2018-03-29T03:56:11.071Z,0.00
2018-03-29T03:57:10.934Z,0.00
2018-03-29T03:58:11.018Z,0.00
2018-03-29T03:59:10.993Z,0.00
2018-03-29T04:00:10.967Z,0.00
2018-03-29T04:01:10.969Z,0.00
2018-03-29T04:02:10.980Z,0.00
2018-03-29T04:03:10.992Z,0.00
2018-03-29T04:04:11.022Z,0.00
2018-03-29T04:05:10.993Z,0.00
2018-03-29T04:06:11.046Z,0.00
2018-03-29T04:07:11.093Z,0.00
2018-03-29T04:08:11.335Z,0.00
2018-03-29T04:09:11.017Z,0.00
2018-03-29T04:10:11.042Z,0.00
2018-03-29T04:11:11.044Z,0.00
2018-03-29T04:12:11.085Z,0.00
2018-03-29T04:13:11.103Z,0.00
2018-03-29T04:14:11.057Z,0.00
2018-03-29T04:15:11.060Z,0.00
2018-03-29T04:16:11.111Z,0.00
2018-03-29T04:17:11.136Z,0.00
2018-03-29T04:18:11.215Z,0.00
2018-03-29T04:19:11.088Z,0.00
2018-03-29T04:20:11.094Z,0.00
2018-03-29T04:21:11.115Z,0.00
2018-03-29T04:22:11.108Z,0.00
2018-03-29T04:23:11.142Z,0.00
2018-03-29T04:24:11.158Z,0.00
2018-03-29T04:25:11.131Z,0.00
2018-03-29T04:26:11.143Z,0.00
2018-03-29T04:27:11.219Z,0.00
2018-03-29T04:28:11.146Z,0.00
2018-03-29T04:29:11.190Z,4.00
2018-03-29T04:30:11.172Z,4.00
2018-03-29T04:31:11.168Z,4.00
2018-03-29T04:32:11.185Z,4.00
2018-03-29T04:33:11.183Z,4.00
2018-03-29T04:34:11.178Z,4.00
2018-03-29T04:35:11.282Z,0.00
2018-03-29T04:36:11.190Z,0.00
2018-03-29T04:37:11.210Z,0.00
2018-03-29T04:38:11.295Z,0.00
2018-03-29T04:39:11.221Z,0.00
2018-03-29T04:40:11.232Z,0.00
2018-03-29T04:41:11.260Z,0.00
2018-03-29T04:42:11.286Z,0.00
2018-03-29T04:43:11.239Z,4.00
2018-03-29T04:44:11.313Z,4.00
2018-03-29T04:45:11.256Z,4.00
2018-03-29T04:46:11.399Z,4.00
2018-03-29T04:47:11.264Z,8.00
2018-03-29T04:48:11.309Z,4.00
2018-03-29T04:49:11.373Z,4.00
2018-03-29T04:50:11.288Z,4.00
2018-03-29T04:51:11.292Z,4.00
2018-03-29T04:52:11.299Z,8.00
2018-03-29T04:53:11.363Z,8.00
2018-03-29T04:54:11.323Z,8.00
2018-03-29T04:55:11.313Z,8.00
2018-03-29T04:56:11.338Z,8.00
2018-03-29T04:57:11.333Z,12.00
2018-03-29T04:58:11.333Z,12.00
2018-03-29T04:59:11.377Z,12.00
2018-03-29T05:00:11.376Z,12.00
2018-03-29T05:01:11.365Z,16.00
2018-03-29T05:02:11.370Z,16.00
2018-03-29T05:03:11.386Z,16.00
2018-03-29T05:04:11.435Z,24.00
2018-03-29T05:05:11.422Z,24.00
2018-03-29T05:06:11.383Z,20.00
2018-03-29T05:07:11.436Z,24.00
2018-03-29T05:08:11.411Z,24.00
2018-03-29T05:09:11.409Z,28.00
2018-03-29T05:10:11.445Z,32.00
2018-03-29T05:11:11.436Z,32.00
2018-03-29T05:12:11.427Z,36.00
2018-03-29T05:13:11.508Z,36.00
2018-03-29T05:14:11.452Z,40.00
2018-03-29T05:15:11.483Z,44.00
2018-03-29T05:16:11.453Z,56.00
2018-03-29T05:17:11.464Z,56.00
2018-03-29T05:18:11.506Z,52.00
2018-03-29T05:19:11.476Z,40.00
2018-03-29T05:20:11.559Z,36.00
2018-03-29T05:21:11.487Z,44.00
2018-03-29T05:22:11.495Z,36.00
2018-03-29T05:23:11.505Z,36.00
2018-03-29T05:24:11.500Z,36.00
2018-03-29T05:25:11.536Z,32.00
2018-03-29T05:26:11.567Z,36.00
2018-03-29T05:27:11.540Z,40.00
2018-03-29T05:28:11.539Z,40.00
2018-03-29T05:29:11.598Z,36.00
2018-03-29T05:30:11.551Z,40.00
2018-03-29T05:31:11.552Z,48.00
2018-03-29T05:32:11.586Z,52.00
2018-03-29T05:33:11.561Z,56.00
2018-03-29T05:34:11.578Z,56.00
2018-03-29T05:35:11.612Z,64.00
2018-03-29T05:36:11.594Z,72.00
2018-03-29T05:37:11.621Z,72.00
2018-03-29T05:38:11.637Z,76.00
2018-03-29T05:39:11.603Z,88.00
2018-03-29T05:40:11.668Z,92.00
2018-03-29T05:41:11.616Z,92.00
2018-03-29T05:42:11.655Z,96.00
2018-03-29T05:43:11.651Z,92.00
2018-03-29T05:44:11.631Z,104.00
2018-03-29T05:45:11.722Z,100.00
2018-03-29T05:46:11.670Z,96.00
2018-03-29T05:47:11.652Z,104.00
2018-03-29T05:48:11.701Z,108.00
2018-03-29T05:49:11.665Z,120.00
2018-03-29T05:50:11.698Z,128.00
2018-03-29T05:51:11.687Z,120.00
2018-03-29T05:52:11.703Z,120.00
2018-03-29T05:53:11.698Z,128.00
2018-03-29T05:54:11.753Z,124.00
2018-03-29T05:55:11.702Z,148.00
2018-03-29T05:56:11.722Z,152.00
2018-03-29T05:57:11.722Z,156.00
2018-03-29T05:58:11.773Z,132.00
2018-03-29T05:59:11.746Z,128.00
2018-03-29T06:00:11.809Z,144.00
2018-03-29T06:01:11.762Z,160.00
2018-03-29T06:02:11.760Z,164.00
2018-03-29T06:03:11.831Z,184.00
2018-03-29T06:04:11.781Z,208.00
2018-03-29T06:05:11.765Z,196.00
2018-03-29T06:06:11.857Z,192.00
2018-03-29T06:07:11.813Z,180.00
2018-03-29T06:08:11.802Z,168.00
2018-03-29T06:09:11.805Z,184.00
2018-03-29T06:10:11.820Z,224.00
2018-03-29T06:11:11.853Z,208.00
2018-03-29T06:12:11.814Z,192.00
2018-03-29T06:13:11.819Z,180.00
2018-03-29T06:14:11.957Z,200.00
2018-03-29T06:15:11.884Z,192.00
2018-03-29T06:16:11.839Z,180.00
2018-03-29T06:17:11.873Z,184.00
2018-03-29T06:18:11.856Z,196.00
2018-03-29T06:19:11.903Z,200.00
2018-03-29T06:20:11.932Z,216.00
2018-03-29T06:21:11.883Z,236.00
2018-03-29T06:22:11.924Z,248.00
2018-03-29T06:23:11.948Z,260.00
2018-03-29T06:24:11.900Z,268.00
2018-03-29T06:25:11.900Z,280.00
2018-03-29T06:26:11.934Z,312.00
2018-03-29T06:27:11.939Z,316.00
2018-03-29T06:28:11.945Z,272.00
2018-03-29T06:29:11.974Z,308.00
2018-03-29T06:30:11.969Z,300.00
2018-03-29T06:31:11.930Z,280.00
2018-03-29T06:32:11.936Z,300.00
2018-03-29T06:33:12.081Z,296.00
2018-03-29T06:34:11.958Z,256.00
2018-03-29T06:35:11.979Z,268.00
2018-03-29T06:36:12.015Z,264.00
2018-03-29T06:37:11.976Z,264.00
2018-03-29T06:38:11.977Z,260.00
2018-03-29T06:39:11.985Z,264.00
2018-03-29T06:40:12.018Z,260.00
2018-03-29T06:41:12.030Z,244.00
2018-03-29T06:42:12.049Z,264.00
2018-03-29T06:43:12.007Z,260.00
2018-03-29T06:44:12.018Z,252.00
2018-03-29T06:45:12.055Z,240.00
2018-03-29T06:46:12.076Z,240.00
2018-03-29T06:47:12.044Z,300.00
2018-03-29T06:48:12.086Z,328.00
2018-03-29T06:49:12.056Z,332.00
2018-03-29T06:50:12.147Z,320.00
2018-03-29T06:51:12.085Z,316.00
2018-03-29T06:52:12.123Z,328.00
2018-03-29T06:53:12.081Z,352.00
2018-03-29T06:54:12.091Z,388.00
2018-03-29T06:55:12.118Z,384.00
2018-03-29T06:56:12.133Z,380.00
2018-03-29T06:57:12.144Z,356.00
2018-03-29T06:58:12.202Z,368.00
2018-03-29T06:59:12.120Z,396.00
2018-03-29T07:00:12.129Z,420.00
2018-03-29T07:01:12.133Z,448.00
2018-03-29T07:02:12.226Z,440.00
2018-03-29T07:03:12.149Z,412.00
2018-03-29T07:04:12.160Z,408.00
2018-03-29T07:05:12.200Z,420.00
2018-03-29T07:06:12.174Z,448.00
2018-03-29T07:07:12.167Z,456.00
2018-03-29T07:08:12.217Z,460.00
2018-03-29T07:09:12.235Z,424.00
2018-03-29T07:10:12.186Z,444.00
2018-03-29T07:11:12.210Z,448.00
2018-03-29T07:12:12.202Z,408.00
2018-03-29T07:13:12.252Z,376.00
2018-03-29T07:14:12.211Z,400.00
2018-03-29T07:15:12.229Z,412.00
2018-03-29T07:16:12.254Z,412.00
2018-03-29T07:17:12.235Z,432.00
2018-03-29T07:18:12.257Z,440.00
2018-03-29T07:19:12.312Z,428.00
2018-03-29T07:20:12.249Z,424.00
2018-03-29T07:21:47.795Z,420.00
2018-03-29T07:22:12.264Z,420.00
2018-03-29T07:23:12.286Z,428.00
2018-03-29T07:24:12.280Z,452.00
2018-03-29T07:25:12.323Z,456.00
2018-03-29T07:26:12.290Z,448.00
2018-03-29T07:27:12.310Z,456.00
2018-03-29T07:28:12.310Z,468.00
2018-03-29T07:29:12.321Z,476.00
2018-03-29T07:30:12.354Z,472.00
2018-03-29T07:31:12.373Z,476.00
2018-03-29T07:32:12.336Z,484.00
2018-03-29T07:33:12.339Z,484.00
2018-03-29T18:12:51.375Z,0.00
2018-03-29T18:13:51.331Z,0.00
2018-03-29T18:14:51.350Z,0.00
2018-03-29T18:15:51.382Z,0.00
2018-03-29T18:16:51.350Z,0.00
2018-03-29T18:17:51.373Z,0.00
2018-03-29T18:18:51.520Z,0.00
2018-03-29T18:19:51.399Z,0.00
2018-03-29T18:20:51.397Z,0.00
2018-03-29T18:21:51.428Z,0.00
2018-03-29T18:22:51.413Z,0.00
2018-03-29T18:23:51.402Z,0.00
2018-03-29T18:24:51.501Z,0.00
2018-03-29T18:25:51.459Z,0.00
2018-03-29T18:26:51.467Z,0.00
2018-03-29T18:27:51.470Z,0.00
2018-03-29T18:28:51.437Z,0.00
2018-03-29T18:29:51.471Z,0.00
2018-03-29T18:30:51.458Z,0.00
2018-03-29T18:31:51.484Z,0.00
2018-03-29T18:32:51.490Z,0.00
2018-03-29T18:33:52.418Z,0.00
2018-03-29T18:34:51.511Z,0.00
2018-03-29T18:35:51.494Z,0.00
2018-03-29T18:36:51.506Z,0.00
2018-03-29T18:37:51.527Z,0.00
2018-03-29T18:38:51.557Z,0.00
2018-03-29T18:39:51.535Z,0.00
2018-03-29T18:40:51.532Z,0.00
2018-03-29T18:41:51.537Z,0.00
2018-03-29T18:42:51.563Z,0.00
2018-03-29T18:43:51.627Z,0.00
2018-03-29T18:44:51.606Z,0.00
2018-03-29T18:45:51.616Z,0.00
2018-03-29T18:46:51.582Z,0.00
2018-03-29T18:47:51.624Z,0.00
2018-03-29T18:48:51.760Z,0.00
2018-03-29T18:49:51.624Z,0.00
2018-03-29T18:50:51.621Z,0.00
2018-03-29T18:51:51.632Z,0.00
2018-03-29T18:52:51.630Z,0.00
2018-03-29T18:53:51.637Z,0.00
2018-03-29T18:54:51.795Z,0.00
2018-03-29T18:55:51.646Z,0.00
2018-03-29T18:56:51.661Z,0.00
2018-03-29T18:57:51.662Z,0.00
2018-03-29T18:58:51.671Z,0.00
2018-03-29T18:59:51.689Z,0.00
2018-03-29T19:00:51.814Z,0.00
2018-03-29T19:01:51.710Z,0.00
2018-03-29T19:02:51.708Z,0.00
2018-03-29T19:03:51.721Z,0.00
2018-03-29T19:04:51.766Z,0.00
2018-03-29T19:05:51.734Z,0.00
2018-03-29T19:06:51.762Z,0.00
2018-03-29T19:07:51.765Z,0.00
2018-03-29T19:08:51.758Z,0.00
2018-03-29T19:09:51.854Z,0.00
2018-03-29T19:10:51.911Z,0.00
2018-03-29T19:11:51.779Z,0.00
2018-03-29T19:12:51.787Z,0.00
2018-03-29T19:13:51.838Z,0.00
2018-03-29T19:14:51.865Z,0.00
2018-03-29T19:15:51.975Z,0.00
2018-03-29T19:16:51.940Z,0.00
2018-03-29T19:17:51.819Z,0.00
2018-03-29T19:18:51.830Z,0.00
2018-03-29T19:19:51.834Z,0.00
2018-03-29T19:20:52.035Z,0.00
2018-03-29T19:21:52.002Z,0.00
2018-03-29T19:22:51.862Z,0.00
2018-03-29T19:23:51.873Z,0.00
2018-03-29T19:24:51.909Z,0.00
2018-03-29T19:25:51.900Z,0.00
2018-03-29T19:26:51.943Z,0.00
2018-03-29T19:27:51.906Z,0.00
2018-03-29T19:28:51.918Z,0.00
2018-03-29T19:29:51.917Z,0.00
2018-03-29T19:30:51.939Z,0.00
2018-03-29T19:31:51.938Z,0.00
2018-03-29T19:32:51.993Z,0.00
2018-03-29T19:33:51.959Z,0.00
2018-03-29T19:34:51.958Z,0.00
2018-03-29T19:35:51.970Z,0.00
2018-03-29T19:36:52.013Z,0.00
2018-03-29T19:37:51.992Z,0.00
2018-03-29T19:38:52.071Z,0.00
2018-03-29T19:39:51.997Z,0.00
2018-03-29T19:40:51.998Z,0.00
2018-03-29T19:41:52.009Z,0.00
2018-03-29T19:42:52.084Z,0.00
2018-03-29T19:43:52.021Z,0.00
2018-03-29T19:44:52.050Z,0.00
2018-03-29T19:45:52.149Z,0.00
2018-03-29T19:46:52.044Z,0.00
2018-03-29T19:47:52.070Z,0.00
2018-03-29T19:48:52.135Z,0.00
2018-03-29T19:49:52.083Z,0.00
2018-03-29T19:50:52.121Z,0.00
2018-03-29T19:51:52.094Z,0.00
2018-03-29T19:52:52.098Z,0.00
2018-03-29T19:53:52.121Z,0.00
2018-03-29T19:54:52.138Z,0.00
2018-03-29T19:55:52.140Z,0.00
2018-03-29T19:56:52.161Z,0.00
2018-03-29T19:57:52.142Z,0.00
2018-03-29T19:58:52.140Z,0.00
2018-03-29T19:59:52.154Z,0.00
2018-03-29T20:00:52.188Z,0.00
2018-03-29T20:01:52.195Z,0.00
2018-03-29T20:02:52.177Z,0.00
2018-03-29T20:03:52.179Z,0.00
2018-03-29T20:04:52.197Z,0.00
2018-03-29T20:05:52.193Z,0.00
2018-03-29T20:06:52.262Z,0.00
2018-03-29T20:07:52.214Z,0.00
2018-03-29T20:08:52.236Z,0.00
2018-03-29T20:09:52.238Z,0.00
2018-03-29T20:10:52.246Z,0.00
2018-03-29T20:11:52.251Z,0.00
2018-03-29T20:12:52.304Z,0.00
2018-03-29T20:13:52.264Z,0.00
2018-03-29T20:14:52.267Z,0.00
2018-03-29T20:15:52.280Z,0.00
2018-03-29T20:16:52.333Z,0.00
2018-03-29T20:17:52.295Z,0.00
2018-03-29T20:18:52.336Z,0.00
2018-03-29T20:19:52.308Z,0.00
2018-03-29T20:20:52.316Z,0.00
2018-03-29T20:21:52.328Z,0.00
2018-03-29T20:22:52.331Z,0.00
2018-03-29T20:23:52.388Z,0.00
2018-03-29T20:24:52.354Z,0.00
2018-03-29T20:25:52.345Z,0.00
2018-03-29T20:26:52.391Z,0.00
2018-03-29T20:27:52.363Z,0.00
2018-03-29T20:28:52.405Z,0.00
2018-03-29T20:29:52.416Z,0.00
2018-03-29T20:30:52.389Z,0.00
2018-03-29T20:31:52.399Z,0.00
2018-03-29T20:32:52.410Z,0.00
2018-03-29T20:33:52.408Z,0.00
2018-03-29T20:34:52.489Z,0.00
2018-03-29T20:35:52.423Z,0.00
2018-03-29T20:36:52.444Z,0.00
2018-03-29T20:37:52.441Z,0.00
2018-03-29T20:38:52.459Z,0.00
2018-03-29T20:39:52.451Z,0.00
2018-03-29T20:40:52.553Z,0.00
2018-03-29T20:41:52.487Z,0.00
2018-03-29T20:42:52.491Z,0.00
2018-03-29T20:43:52.494Z,0.00
2018-03-29T20:44:52.506Z,0.00
2018-03-29T20:45:52.551Z,0.00
2018-03-29T20:46:52.537Z,0.00
2018-03-29T20:47:52.520Z,0.00
2018-03-29T20:48:52.535Z,0.00
2018-03-29T20:49:52.553Z,0.00
2018-03-29T20:50:52.568Z,0.00
2018-03-29T20:51:52.591Z,0.00
2018-03-29T20:52:52.577Z,0.00
2018-03-29T20:53:52.561Z,0.00
2018-03-29T20:54:52.592Z,0.00
2018-03-29T20:55:52.599Z,0.00
2018-03-29T20:56:52.624Z,0.00
2018-03-29T20:57:52.642Z,0.00
2018-03-29T20:58:52.619Z,0.00
2018-03-29T20:59:52.622Z,0.00
2018-03-29T21:00:52.629Z,0.00
2018-03-29T21:01:52.679Z,0.00
2018-03-29T21:02:52.829Z,0.00
2018-03-29T21:03:52.662Z,0.00
2018-03-29T21:04:52.665Z,0.00
2018-03-29T21:05:52.671Z,0.00
2018-03-29T21:06:52.675Z,0.00
2018-03-29T21:07:52.674Z,0.00
2018-03-29T21:08:52.714Z,0.00
2018-03-29T21:09:52.691Z,0.00
2018-03-29T21:10:52.710Z,0.00
2018-03-29T21:11:52.705Z,0.00
2018-03-29T21:12:52.724Z,0.00
2018-03-29T21:13:52.771Z,0.00
2018-03-29T21:14:52.725Z,0.00
2018-03-29T21:15:52.755Z,0.00
2018-03-29T21:16:52.752Z,0.00
2018-03-29T21:17:52.771Z,0.00
2018-03-29T21:18:52.802Z,0.00
2018-03-29T21:19:52.808Z,0.00
2018-03-29T21:20:52.777Z,0.00
2018-03-29T21:21:52.777Z,0.00
2018-03-29T21:22:52.799Z,0.00
2018-03-29T21:23:52.851Z,0.00
2018-03-29T21:24:52.798Z,0.00
2018-03-29T21:25:52.810Z,0.00
2018-03-29T21:26:52.862Z,0.00
2018-03-29T21:27:52.831Z,0.00
2018-03-29T21:28:52.840Z,0.00
2018-03-29T21:29:52.859Z,0.00
2018-03-29T21:30:52.863Z,0.00
2018-03-29T21:31:52.854Z,0.00
2018-03-29T21:32:52.943Z,0.00
2018-03-29T21:33:52.888Z,0.00
2018-03-29T21:34:52.893Z,0.00
2018-03-29T21:35:52.913Z,0.00
2018-03-29T21:36:52.910Z,0.00
2018-03-29T21:37:52.950Z,0.00
2018-03-29T21:38:52.909Z,0.00
2018-03-29T21:39:53.098Z,0.00
2018-03-29T21:40:52.945Z,0.00
2018-03-29T21:41:52.949Z,0.00
2018-03-29T21:42:53.066Z,0.00
2018-03-29T21:43:53.019Z,0.00
2018-03-29T21:44:52.955Z,0.00
2018-03-29T21:45:52.970Z,0.00
2018-03-29T21:46:52.977Z,0.00
2018-03-29T21:47:52.986Z,0.00
2018-03-29T21:48:53.038Z,0.00
2018-03-29T21:49:52.999Z,0.00
2018-03-29T21:50:53.020Z,0.00
2018-03-29T21:51:53.015Z,0.00
2018-03-29T21:52:53.124Z,0.00
2018-03-29T21:53:53.036Z,0.00
2018-03-29T21:54:53.119Z,0.00
2018-03-29T21:55:53.048Z,0.00
2018-03-29T21:56:53.151Z,0.00
2018-03-29T21:57:53.060Z,0.00
2018-03-29T21:58:53.068Z,0.00
2018-03-29T21:59:53.115Z,0.00
2018-03-29T22:00:53.080Z,0.00
2018-03-29T22:01:53.148Z,0.00
2018-03-29T22:02:53.098Z,0.00
2018-03-29T22:03:53.103Z,0.00
2018-03-29T22:04:53.148Z,0.00
2018-03-29T22:05:53.376Z,0.00
2018-03-29T22:06:53.142Z,0.00
2018-03-29T22:07:53.132Z,0.00
2018-03-29T22:08:53.180Z,0.00
2018-03-29T22:09:53.144Z,0.00
2018-03-29T22:10:53.150Z,0.00
2018-03-29T22:11:53.166Z,0.00
2018-03-29T22:12:53.187Z,0.00
2018-03-29T22:13:53.211Z,0.00
2018-03-29T22:14:53.227Z,0.00
2018-03-29T22:15:53.189Z,0.00
2018-03-29T22:16:53.203Z,0.00
2018-03-29T22:17:53.205Z,0.00
2018-03-29T22:18:53.268Z,0.00
2018-03-29T22:19:53.219Z,0.00
2018-03-29T22:20:53.227Z,0.00
2018-03-29T22:21:53.231Z,0.00
2018-03-29T22:22:53.245Z,0.00
2018-03-29T22:23:53.250Z,0.00
2018-03-29T22:24:53.297Z,0.00
2018-03-29T22:25:53.290Z,0.00
2018-03-29T22:26:53.276Z,0.00
2018-03-29T22:27:53.319Z,0.00
2018-03-29T22:28:53.291Z,0.00
2018-03-29T22:29:53.311Z,0.00
2018-03-29T22:30:53.340Z,0.00
2018-03-29T22:31:53.332Z,0.00
2018-03-29T22:32:53.340Z,0.00
2018-03-29T22:33:53.404Z,0.00
2018-03-29T22:34:53.372Z,0.00
2018-03-29T22:35:53.378Z,0.00
2018-03-29T22:36:53.366Z,0.00
2018-03-29T22:37:53.362Z,0.00
2018-03-29T22:38:53.408Z,0.00
2018-03-29T22:39:53.385Z,0.00
2018-03-29T22:40:53.395Z,0.00
2018-03-29T22:41:53.408Z,0.00
2018-03-29T22:42:53.401Z,0.00
2018-03-29T22:43:53.420Z,0.00
2018-03-29T22:44:53.443Z,0.00
2018-03-29T22:45:53.429Z,0.00
2018-03-29T22:46:53.457Z,0.00
2018-03-29T22:47:53.422Z,0.00
2018-03-29T22:48:53.444Z,0.00
2018-03-29T22:49:53.469Z,0.00
2018-03-29T22:50:53.484Z,0.00
2018-03-29T22:51:53.472Z,0.00
2018-03-29T22:52:53.498Z,0.00
2018-03-29T22:53:53.523Z,0.00
2018-03-29T22:54:53.512Z,0.00
2018-03-29T22:55:53.492Z,0.00
2018-03-29T22:56:53.504Z,0.00
2018-03-29T22:57:53.535Z,0.00
2018-03-29T22:58:53.508Z,0.00
2018-03-29T22:59:53.558Z,0.00
2018-03-29T23:00:53.556Z,0.00
2018-03-29T23:01:53.533Z,0.00
2018-03-29T23:02:53.544Z,0.00
2018-03-29T23:03:53.553Z,0.00
2018-03-29T23:04:53.565Z,0.00
2018-03-29T23:05:53.599Z,0.00
2018-03-29T23:06:53.615Z,0.00
2018-03-29T23:07:53.572Z,0.00
2018-03-29T23:08:53.619Z,0.00
2018-03-29T23:09:53.633Z,0.00
2018-03-29T23:10:53.596Z,0.00
2018-03-29T23:11:53.613Z,0.00
2018-03-29T23:12:53.622Z,0.00
2018-03-29T23:13:53.624Z,0.00
2018-03-29T23:14:53.627Z,0.00
2018-03-29T23:15:53.735Z,0.00
2018-03-29T23:16:53.642Z,0.00
2018-03-29T23:17:53.654Z,0.00
2018-03-29T23:18:53.646Z,0.00
2018-03-29T23:19:53.661Z,0.00
2018-03-29T23:20:53.668Z,0.00
2018-03-29T23:21:53.710Z,0.00
2018-03-29T23:22:53.689Z,0.00
2018-03-29T23:23:53.691Z,0.00
2018-03-29T23:24:53.730Z,0.00
2018-03-29T23:25:53.732Z,0.00
2018-03-29T23:26:53.783Z,0.00
2018-03-29T23:27:53.717Z,0.00
2018-03-29T23:28:53.740Z,0.00
2018-03-29T23:29:53.787Z,0.00
2018-03-29T23:30:53.746Z,0.00
2018-03-29T23:31:53.741Z,0.00
2018-03-29T23:32:53.748Z,0.00
2018-03-29T23:33:53.778Z,0.00
2018-03-29T23:34:53.766Z,0.00
2018-03-29T23:35:53.816Z,0.00
2018-03-29T23:36:53.777Z,0.00
2018-03-29T23:37:53.794Z,0.00
2018-03-29T23:38:53.790Z,0.00
2018-03-29T23:39:53.811Z,0.00
2018-03-29T23:40:53.827Z,0.00
2018-03-29T23:41:53.853Z,0.00
2018-03-29T23:42:53.828Z,0.00
2018-03-29T23:43:53.825Z,0.00
2018-03-29T23:44:53.839Z,0.00
2018-03-29T23:45:53.869Z,0.00
2018-03-29T23:46:53.854Z,0.00
2018-03-29T23:47:53.905Z,0.00